Pea Ridge, Missouri
Current Conditions -  °F | °C
As of 1:15 AM on Friday 31 Oct 2014 (Local Time) from KFYG Reporting Station
Broken Clouds Broken Clouds  
Wind Chill: 38°   Ceiling: 11000
Heat Index: 41°   Visibility: 10mi
Dew Point: 41°   Wind: 5mph
Humidity: 100%   Direction: 330°NNW
Pressure: 30.07"   Gusts: NA
Location:  38.2643°N, 91.1348°W
Report Text: KFYG 310615Z AUTO 33004KT 10SM FEW080 BKN110 05/05 A3007 RMK AO2
Loading
Personal Weather Stations






























Interactive Weather Map New forecast layout! Learn more

10-Day Weather Forecast

Advertisements
Track Severe Weather on mobile